sensor_id;sensor_type;location;lat;lon;timestamp;temperature;humidity
67131;HTU21D;54051;53.464;49.532;2022-10-16T00:01:55;5.06;77.77
67131;HTU21D;54051;53.464;49.532;2022-10-16T00:04:27;4.98;77.91
67131;HTU21D;54051;53.464;49.532;2022-10-16T00:06:58;4.96;78.13
67131;HTU21D;54051;53.464;49.532;2022-10-16T00:09:29;4.95;77.92
67131;HTU21D;54051;53.464;49.532;2022-10-16T00:12:00;4.98;77.85
67131;HTU21D;54051;53.464;49.532;2022-10-16T00:14:31;5.01;77.81
67131;HTU21D;54051;53.464;49.532;2022-10-16T00:17:02;5.10;77.65
67131;HTU21D;54051;53.464;49.532;2022-10-16T00:23:33;4.89;79.22
67131;HTU21D;54051;53.464;49.532;2022-10-16T00:26:06;5.01;79.28
67131;HTU21D;54051;53.464;49.532;2022-10-16T00:28:37;4.89;78.48
67131;HTU21D;54051;53.464;49.532;2022-10-16T00:31:09;4.77;79.01
67131;HTU21D;54051;53.464;49.532;2022-10-16T00:33:41;4.71;79.30
67131;HTU21D;54051;53.464;49.532;2022-10-16T00:36:13;4.59;79.56
67131;HTU21D;54051;53.464;49.532;2022-10-16T00:38:44;4.52;80.05
67131;HTU21D;54051;53.464;49.532;2022-10-16T00:41:16;4.47;80.07
67131;HTU21D;54051;53.464;49.532;2022-10-16T00:43:49;4.44;80.26
67131;HTU21D;54051;53.464;49.532;2022-10-16T00:46:22;4.43;80.25
67131;HTU21D;54051;53.464;49.532;2022-10-16T00:51:41;4.45;80.03
67131;HTU21D;54051;53.464;49.532;2022-10-16T00:54:14;4.46;79.76
67131;HTU21D;54051;53.464;49.532;2022-10-16T00:56:46;4.35;80.03
67131;HTU21D;54051;53.464;49.532;2022-10-16T00:59:23;4.20;80.82
67131;HTU21D;54051;53.464;49.532;2022-10-16T01:01:58;4.19;81.08
67131;HTU21D;54051;53.464;49.532;2022-10-16T01:04:34;4.19;81.20
67131;HTU21D;54051;53.464;49.532;2022-10-16T01:16:26;4.18;81.34
67131;HTU21D;54051;53.464;49.532;2022-10-16T01:19:12;4.12;81.54
67131;HTU21D;54051;53.464;49.532;2022-10-16T01:21:45;4.04;81.84
67131;HTU21D;54051;53.464;49.532;2022-10-16T01:24:24;4.02;81.94
67131;HTU21D;54051;53.464;49.532;2022-10-16T01:32:15;3.99;82.40
67131;HTU21D;54051;53.464;49.532;2022-10-16T01:34:49;3.94;82.57
67131;HTU21D;54051;53.464;49.532;2022-10-16T01:44:36;3.93;82.55
67131;HTU21D;54051;53.464;49.532;2022-10-16T01:47:07;3.94;82.51
67131;HTU21D;54051;53.464;49.532;2022-10-16T01:49:40;3.90;82.73
67131;HTU21D;54051;53.464;49.532;2022-10-16T01:52:16;3.86;82.91
67131;HTU21D;54051;53.464;49.532;2022-10-16T01:54:48;3.85;82.96
67131;HTU21D;54051;53.464;49.532;2022-10-16T01:57:21;3.78;83.16
67131;HTU21D;54051;53.464;49.532;2022-10-16T01:59:54;3.74;83.42
67131;HTU21D;54051;53.464;49.532;2022-10-16T02:02:26;3.76;83.22
67131;HTU21D;54051;53.464;49.532;2022-10-16T02:05:04;3.74;83.18
67131;HTU21D;54051;53.464;49.532;2022-10-16T02:11:40;3.86;82.65
67131;HTU21D;54051;53.464;49.532;2022-10-16T02:14:12;3.88;82.49
67131;HTU21D;54051;53.464;49.532;2022-10-16T02:16:45;3.88;82.79
67131;HTU21D;54051;53.464;49.532;2022-10-16T02:19:17;3.95;82.21
67131;HTU21D;54051;53.464;49.532;2022-10-16T02:21:51;3.99;81.91
67131;HTU21D;54051;53.464;49.532;2022-10-16T02:24:32;3.84;82.47
67131;HTU21D;54051;53.464;49.532;2022-10-16T02:29:42;3.87;82.17
67131;HTU21D;54051;53.464;49.532;2022-10-16T02:32:17;3.89;81.48
67131;HTU21D;54051;53.464;49.532;2022-10-16T02:34:53;3.70;82.65
67131;HTU21D;54051;53.464;49.532;2022-10-16T03:05:40;3.61;83.22
67131;HTU21D;54051;53.464;49.532;2022-10-16T03:08:12;3.61;82.46
67131;HTU21D;54051;53.464;49.532;2022-10-16T03:10:43;3.67;82.40
67131;HTU21D;54051;53.464;49.532;2022-10-16T03:13:14;3.75;82.01
67131;HTU21D;54051;53.464;49.532;2022-10-16T03:15:45;3.75;81.74
67131;HTU21D;54051;53.464;49.532;2022-10-16T03:18:17;3.74;81.59
67131;HTU21D;54051;53.464;49.532;2022-10-16T03:20:48;3.70;82.08
67131;HTU21D;54051;53.464;49.532;2022-10-16T03:23:20;3.76;82.07
67131;HTU21D;54051;53.464;49.532;2022-10-16T03:25:51;3.83;81.99
67131;HTU21D;54051;53.464;49.532;2022-10-16T03:28:23;3.97;81.00
67131;HTU21D;54051;53.464;49.532;2022-10-16T03:30:54;3.91;81.15
67131;HTU21D;54051;53.464;49.532;2022-10-16T03:33:26;3.90;81.49
67131;HTU21D;54051;53.464;49.532;2022-10-16T03:35:57;3.88;81.97
67131;HTU21D;54051;53.464;49.532;2022-10-16T03:41:50;4.14;81.72
67131;HTU21D;54051;53.464;49.532;2022-10-16T03:44:21;4.27;80.98
67131;HTU21D;54051;53.464;49.532;2022-10-16T03:46:52;4.29;80.57
67131;HTU21D;54051;53.464;49.532;2022-10-16T03:49:23;4.22;81.26
67131;HTU21D;54051;53.464;49.532;2022-10-16T03:51:54;4.17;81.36
67131;HTU21D;54051;53.464;49.532;2022-10-16T03:54:25;4.27;81.70
67131;HTU21D;54051;53.464;49.532;2022-10-16T03:57:00;4.28;81.29
67131;HTU21D;54051;53.464;49.532;2022-10-16T03:59:31;4.27;81.62
67131;HTU21D;54051;53.464;49.532;2022-10-16T04:02:02;4.42;80.99
67131;HTU21D;54051;53.464;49.532;2022-10-16T04:04:34;4.42;81.20
67131;HTU21D;54051;53.464;49.532;2022-10-16T04:07:05;4.62;81.07
67131;HTU21D;54051;53.464;49.532;2022-10-16T04:09:36;4.88;79.49
67131;HTU21D;54051;53.464;49.532;2022-10-16T04:12:07;4.76;79.92
67131;HTU21D;54051;53.464;49.532;2022-10-16T04:14:38;4.80;80.27
67131;HTU21D;54051;53.464;49.532;2022-10-16T04:17:09;5.05;79.19
67131;HTU21D;54051;53.464;49.532;2022-10-16T04:19:40;5.16;78.60
67131;HTU21D;54051;53.464;49.532;2022-10-16T04:22:11;5.19;79.17
67131;HTU21D;54051;53.464;49.532;2022-10-16T04:24:43;5.25;79.12
67131;HTU21D;54051;53.464;49.532;2022-10-16T04:27:14;5.35;79.13
67131;HTU21D;54051;53.464;49.532;2022-10-16T04:29:45;5.40;79.28
67131;HTU21D;54051;53.464;49.532;2022-10-16T04:32:16;5.51;79.07
67131;HTU21D;54051;53.464;49.532;2022-10-16T04:34:47;5.70;78.41
67131;HTU21D;54051;53.464;49.532;2022-10-16T04:37:18;5.75;77.76
67131;HTU21D;54051;53.464;49.532;2022-10-16T04:43:54;6.39;75.02
67131;HTU21D;54051;53.464;49.532;2022-10-16T04:46:25;6.73;73.47
67131;HTU21D;54051;53.464;49.532;2022-10-16T04:48:56;7.03;72.02
67131;HTU21D;54051;53.464;49.532;2022-10-16T04:51:28;7.86;70.05
67131;HTU21D;54051;53.464;49.532;2022-10-16T04:54:05;11.54;57.58
67131;HTU21D;54051;53.464;49.532;2022-10-16T04:56:36;15.51;44.67
67131;HTU21D;54051;53.464;49.532;2022-10-16T04:59:14;17.21;40.09
67131;HTU21D;54051;53.464;49.532;2022-10-16T05:01:45;18.40;37.30
67131;HTU21D;54051;53.464;49.532;2022-10-16T05:04:17;18.35;37.32
67131;HTU21D;54051;53.464;49.532;2022-10-16T05:06:48;18.23;37.51
67131;HTU21D;54051;53.464;49.532;2022-10-16T05:09:19;18.37;37.26
67131;HTU21D;54051;53.464;49.532;2022-10-16T05:11:51;19.42;34.66
67131;HTU21D;54051;53.464;49.532;2022-10-16T05:14:22;20.45;32.36
67131;HTU21D;54051;53.464;49.532;2022-10-16T05:16:53;21.80;29.95
67131;HTU21D;54051;53.464;49.532;2022-10-16T05:19:24;23.54;26.20
67131;HTU21D;54051;53.464;49.532;2022-10-16T05:21:55;24.63;24.27
67131;HTU21D;54051;53.464;49.532;2022-10-16T05:24:26;25.03;23.34
67131;HTU21D;54051;53.464;49.532;2022-10-16T05:26:57;24.50;24.26
67131;HTU21D;54051;53.464;49.532;2022-10-16T05:29:29;24.46;24.43
67131;HTU21D;54051;53.464;49.532;2022-10-16T05:32:00;24.16;24.99
67131;HTU21D;54051;53.464;49.532;2022-10-16T05:34:31;24.33;24.30
67131;HTU21D;54051;53.464;49.532;2022-10-16T05:39:58;24.80;24.20
67131;HTU21D;54051;53.464;49.532;2022-10-16T05:42:29;24.44;24.54
67131;HTU21D;54051;53.464;49.532;2022-10-16T05:45:01;24.56;24.69
67131;HTU21D;54051;53.464;49.532;2022-10-16T05:47:35;24.65;24.17
67131;HTU21D;54051;53.464;49.532;2022-10-16T05:50:06;25.10;23.62
67131;HTU21D;54051;53.464;49.532;2022-10-16T05:52:40;26.49;21.64
67131;HTU21D;54051;53.464;49.532;2022-10-16T05:55:12;27.46;19.58
67131;HTU21D;54051;53.464;49.532;2022-10-16T05:57:43;27.88;18.58
67131;HTU21D;54051;53.464;49.532;2022-10-16T06:00:14;26.50;21.17
67131;HTU21D;54051;53.464;49.532;2022-10-16T06:02:46;25.86;22.02
67131;HTU21D;54051;53.464;49.532;2022-10-16T06:05:17;25.69;22.56
67131;HTU21D;54051;53.464;49.532;2022-10-16T06:07:48;25.20;23.62
67131;HTU21D;54051;53.464;49.532;2022-10-16T06:10:19;24.38;24.82
67131;HTU21D;54051;53.464;49.532;2022-10-16T06:12:50;23.71;25.85
67131;HTU21D;54051;53.464;49.532;2022-10-16T06:15:24;24.24;24.65
67131;HTU21D;54051;53.464;49.532;2022-10-16T06:17:55;24.82;23.85
67131;HTU21D;54051;53.464;49.532;2022-10-16T06:20:26;25.36;23.34
67131;HTU21D;54051;53.464;49.532;2022-10-16T06:22:57;24.43;24.83
67131;HTU21D;54051;53.464;49.532;2022-10-16T06:25:28;25.36;23.28
67131;HTU21D;54051;53.464;49.532;2022-10-16T06:27:59;27.70;19.89
67131;HTU21D;54051;53.464;49.532;2022-10-16T06:30:31;29.24;17.46
67131;HTU21D;54051;53.464;49.532;2022-10-16T06:33:02;30.40;15.60
67131;HTU21D;54051;53.464;49.532;2022-10-16T06:43:36;31.84;12.99
67131;HTU21D;54051;53.464;49.532;2022-10-16T06:46:09;30.96;14.79
67131;HTU21D;54051;53.464;49.532;2022-10-16T06:48:41;31.31;13.71
67131;HTU21D;54051;53.464;49.532;2022-10-16T06:51:13;30.38;14.28
67131;HTU21D;54051;53.464;49.532;2022-10-16T07:01:47;31.02;13.17
67131;HTU21D;54051;53.464;49.532;2022-10-16T07:04:18;31.74;12.81
67131;HTU21D;54051;53.464;49.532;2022-10-16T07:06:49;31.80;12.52
67131;HTU21D;54051;53.464;49.532;2022-10-16T07:09:20;32.38;12.35
67131;HTU21D;54051;53.464;49.532;2022-10-16T07:14:47;31.39;12.87
67131;HTU21D;54051;53.464;49.532;2022-10-16T07:17:19;31.11;12.49
67131;HTU21D;54051;53.464;49.532;2022-10-16T07:19:59;30.71;13.97
67131;HTU21D;54051;53.464;49.532;2022-10-16T07:22:30;30.21;14.45
67131;HTU21D;54051;53.464;49.532;2022-10-16T07:25:01;30.63;15.39
67131;HTU21D;54051;53.464;49.532;2022-10-16T07:27:36;30.55;15.51
67131;HTU21D;54051;53.464;49.532;2022-10-16T07:30:07;29.91;16.25
67131;HTU21D;54051;53.464;49.532;2022-10-16T07:32:41;30.52;15.75
67131;HTU21D;54051;53.464;49.532;2022-10-16T07:35:12;29.82;16.70
67131;HTU21D;54051;53.464;49.532;2022-10-16T07:37:44;28.62;18.34
67131;HTU21D;54051;53.464;49.532;2022-10-16T07:43:12;27.88;20.02
67131;HTU21D;54051;53.464;49.532;2022-10-16T07:45:47;27.64;19.93
67131;HTU21D;54051;53.464;49.532;2022-10-16T07:48:19;27.66;19.92
67131;HTU21D;54051;53.464;49.532;2022-10-16T07:51:00;28.04;19.11
67131;HTU21D;54051;53.464;49.532;2022-10-16T07:53:32;28.42;19.03
67131;HTU21D;54051;53.464;49.532;2022-10-16T07:56:04;28.25;18.45
67131;HTU21D;54051;53.464;49.532;2022-10-16T07:58:36;27.27;20.41
67131;HTU21D;54051;53.464;49.532;2022-10-16T08:01:08;27.09;20.47
67131;HTU21D;54051;53.464;49.532;2022-10-16T08:03:43;27.12;21.69
67131;HTU21D;54051;53.464;49.532;2022-10-16T08:06:19;26.86;21.01
67131;HTU21D;54051;53.464;49.532;2022-10-16T08:08:51;26.18;21.75
67131;HTU21D;54051;53.464;49.532;2022-10-16T08:11:22;26.99;21.73
67131;HTU21D;54051;53.464;49.532;2022-10-16T08:13:54;26.58;22.20
67131;HTU21D;54051;53.464;49.532;2022-10-16T08:16:25;26.47;22.24
67131;HTU21D;54051;53.464;49.532;2022-10-16T08:18:56;26.53;21.74
67131;HTU21D;54051;53.464;49.532;2022-10-16T08:21:27;25.88;22.48
67131;HTU21D;54051;53.464;49.532;2022-10-16T08:23:58;25.91;24.17
67131;HTU21D;54051;53.464;49.532;2022-10-16T08:26:31;26.82;21.49
67131;HTU21D;54051;53.464;49.532;2022-10-16T08:29:02;27.01;21.02
67131;HTU21D;54051;53.464;49.532;2022-10-16T08:31:33;27.87;20.03
67131;HTU21D;54051;53.464;49.532;2022-10-16T08:34:04;29.17;18.47
67131;HTU21D;54051;53.464;49.532;2022-10-16T08:36:35;29.28;14.88
67131;HTU21D;54051;53.464;49.532;2022-10-16T08:39:07;28.21;18.09
67131;HTU21D;54051;53.464;49.532;2022-10-16T08:44:30;27.13;18.25
67131;HTU21D;54051;53.464;49.532;2022-10-16T08:49:39;21.14;30.83
67131;HTU21D;54051;53.464;49.532;2022-10-16T08:52:12;19.63;32.66
67131;HTU21D;54051;53.464;49.532;2022-10-16T08:54:45;18.30;36.24
67131;HTU21D;54051;53.464;49.532;2022-10-16T08:57:22;17.99;38.34
67131;HTU21D;54051;53.464;49.532;2022-10-16T08:59:53;18.26;37.10
67131;HTU21D;54051;53.464;49.532;2022-10-16T09:05:22;18.36;36.91
67131;HTU21D;54051;53.464;49.532;2022-10-16T09:08:09;17.98;36.47
67131;HTU21D;54051;53.464;49.532;2022-10-16T09:10:49;17.41;39.75
67131;HTU21D;54051;53.464;49.532;2022-10-16T09:13:27;16.92;40.18
67131;HTU21D;54051;53.464;49.532;2022-10-16T09:18:41;16.82;40.56
67131;HTU21D;54051;53.464;49.532;2022-10-16T09:21:24;16.31;41.21
67131;HTU21D;54051;53.464;49.532;2022-10-16T09:23:57;15.61;41.61
67131;HTU21D;54051;53.464;49.532;2022-10-16T09:26:29;15.36;42.84
67131;HTU21D;54051;53.464;49.532;2022-10-16T09:29:00;14.88;45.50
67131;HTU21D;54051;53.464;49.532;2022-10-16T09:31:31;14.72;46.29
67131;HTU21D;54051;53.464;49.532;2022-10-16T09:34:02;15.28;43.29
67131;HTU21D;54051;53.464;49.532;2022-10-16T09:36:41;15.29;37.18
67131;HTU21D;54051;53.464;49.532;2022-10-16T09:39:12;15.23;36.54
67131;HTU21D;54051;53.464;49.532;2022-10-16T09:41:44;15.03;38.20
67131;HTU21D;54051;53.464;49.532;2022-10-16T09:44:20;14.96;38.32
67131;HTU21D;54051;53.464;49.532;2022-10-16T09:47:03;14.83;38.20
67131;HTU21D;54051;53.464;49.532;2022-10-16T09:49:34;14.71;39.67
67131;HTU21D;54051;53.464;49.532;2022-10-16T09:52:11;14.52;39.34
67131;HTU21D;54051;53.464;49.532;2022-10-16T09:54:49;14.19;39.67
67131;HTU21D;54051;53.464;49.532;2022-10-16T09:57:20;13.88;40.90
67131;HTU21D;54051;53.464;49.532;2022-10-16T09:59:52;13.67;41.87
67131;HTU21D;54051;53.464;49.532;2022-10-16T10:02:28;13.55;41.96
67131;HTU21D;54051;53.464;49.532;2022-10-16T10:05:00;13.64;41.65
67131;HTU21D;54051;53.464;49.532;2022-10-16T10:07:33;13.64;42.71
67131;HTU21D;54051;53.464;49.532;2022-10-16T10:10:16;13.80;42.50
67131;HTU21D;54051;53.464;49.532;2022-10-16T10:12:50;14.00;40.81
67131;HTU21D;54051;53.464;49.532;2022-10-16T10:15:21;14.01;42.29
67131;HTU21D;54051;53.464;49.532;2022-10-16T10:17:55;13.76;42.40
67131;HTU21D;54051;53.464;49.532;2022-10-16T10:20:29;13.68;43.09
67131;HTU21D;54051;53.464;49.532;2022-10-16T10:23:01;13.94;41.29
67131;HTU21D;54051;53.464;49.532;2022-10-16T10:31:23;13.92;41.12
67131;HTU21D;54051;53.464;49.532;2022-10-16T10:34:04;13.80;41.81
67131;HTU21D;54051;53.464;49.532;2022-10-16T10:36:40;13.78;41.48
67131;HTU21D;54051;53.464;49.532;2022-10-16T10:39:23;13.80;41.79
67131;HTU21D;54051;53.464;49.532;2022-10-16T10:47:12;13.74;42.29
67131;HTU21D;54051;53.464;49.532;2022-10-16T11:03:25;13.11;43.57
67131;HTU21D;54051;53.464;49.532;2022-10-16T11:06:00;13.06;43.38
67131;HTU21D;54051;53.464;49.532;2022-10-16T11:08:38;13.10;43.28
67131;HTU21D;54051;53.464;49.532;2022-10-16T11:13:48;13.07;43.43
67131;HTU21D;54051;53.464;49.532;2022-10-16T11:21:54;13.14;43.75
67131;HTU21D;54051;53.464;49.532;2022-10-16T11:27:08;13.02;43.43
67131;HTU21D;54051;53.464;49.532;2022-10-16T11:29:44;13.04;44.05
67131;HTU21D;54051;53.464;49.532;2022-10-16T11:32:20;13.15;42.68
67131;HTU21D;54051;53.464;49.532;2022-10-16T11:34:59;13.00;44.72
67131;HTU21D;54051;53.464;49.532;2022-10-16T11:43:07;12.95;42.94
67131;HTU21D;54051;53.464;49.532;2022-10-16T11:45:46;12.84;43.60
67131;HTU21D;54051;53.464;49.532;2022-10-16T11:48:23;12.84;43.98
67131;HTU21D;54051;53.464;49.532;2022-10-16T11:56:23;12.89;43.13
67131;HTU21D;54051;53.464;49.532;2022-10-16T11:58:57;12.94;42.72
67131;HTU21D;54051;53.464;49.532;2022-10-16T12:06:46;12.99;42.97
67131;HTU21D;54051;53.464;49.532;2022-10-16T12:09:32;12.87;43.11
67131;HTU21D;54051;53.464;49.532;2022-10-16T12:12:03;12.73;43.90
67131;HTU21D;54051;53.464;49.532;2022-10-16T12:14:36;12.55;43.24
67131;HTU21D;54051;53.464;49.532;2022-10-16T12:19:57;12.15;44.97
67131;HTU21D;54051;53.464;49.532;2022-10-16T12:22:29;11.97;45.44
67131;HTU21D;54051;53.464;49.532;2022-10-16T12:25:01;11.78;45.96
67131;HTU21D;54051;53.464;49.532;2022-10-16T12:27:33;11.76;46.73
67131;HTU21D;54051;53.464;49.532;2022-10-16T12:30:05;11.63;46.70
67131;HTU21D;54051;53.464;49.532;2022-10-16T12:32:37;11.53;46.99
67131;HTU21D;54051;53.464;49.532;2022-10-16T12:35:20;11.44;47.34
67131;HTU21D;54051;53.464;49.532;2022-10-16T12:37:52;11.52;47.97
67131;HTU21D;54051;53.464;49.532;2022-10-16T12:40:27;11.57;47.61
67131;HTU21D;54051;53.464;49.532;2022-10-16T12:42:59;11.53;47.61
67131;HTU21D;54051;53.464;49.532;2022-10-16T12:45:31;11.48;47.93
67131;HTU21D;54051;53.464;49.532;2022-10-16T12:48:04;11.54;47.99
67131;HTU21D;54051;53.464;49.532;2022-10-16T12:50:37;11.58;47.83
67131;HTU21D;54051;53.464;49.532;2022-10-16T12:53:18;11.48;48.49
67131;HTU21D;54051;53.464;49.532;2022-10-16T12:58:32;11.27;48.49
67131;HTU21D;54051;53.464;49.532;2022-10-16T13:01:17;11.15;49.19
67131;HTU21D;54051;53.464;49.532;2022-10-16T13:04:04;11.10;50.08
67131;HTU21D;54051;53.464;49.532;2022-10-16T13:09:40;10.99;50.05
67131;HTU21D;54051;53.464;49.532;2022-10-16T13:14:52;10.84;50.03
67131;HTU21D;54051;53.464;49.532;2022-10-16T13:30:27;10.57;52.69
67131;HTU21D;54051;53.464;49.532;2022-10-16T13:35:31;10.26;52.87
67131;HTU21D;54051;53.464;49.532;2022-10-16T13:38:24;10.26;52.77
67131;HTU21D;54051;53.464;49.532;2022-10-16T13:40:57;10.25;54.38
67131;HTU21D;54051;53.464;49.532;2022-10-16T13:43:34;10.19;53.48
67131;HTU21D;54051;53.464;49.532;2022-10-16T13:46:16;10.00;54.49
67131;HTU21D;54051;53.464;49.532;2022-10-16T13:49:00;9.85;55.48
67131;HTU21D;54051;53.464;49.532;2022-10-16T13:51:32;9.91;56.24
67131;HTU21D;54051;53.464;49.532;2022-10-16T13:54:03;9.95;55.77
67131;HTU21D;54051;53.464;49.532;2022-10-16T13:56:34;9.96;55.84
67131;HTU21D;54051;53.464;49.532;2022-10-16T13:59:06;9.86;56.07
67131;HTU21D;54051;53.464;49.532;2022-10-16T14:01:41;9.68;57.11
67131;HTU21D;54051;53.464;49.532;2022-10-16T14:04:13;9.46;58.87
67131;HTU21D;54051;53.464;49.532;2022-10-16T14:06:46;9.38;58.91
67131;HTU21D;54051;53.464;49.532;2022-10-16T14:09:27;9.32;59.17
67131;HTU21D;54051;53.464;49.532;2022-10-16T14:12:09;9.25;59.28
67131;HTU21D;54051;53.464;49.532;2022-10-16T14:14:44;9.15;59.64
67131;HTU21D;54051;53.464;49.532;2022-10-16T14:17:26;9.12;60.21
67131;HTU21D;54051;53.464;49.532;2022-10-16T14:19:58;8.97;60.74
67131;HTU21D;54051;53.464;49.532;2022-10-16T14:22:48;8.86;61.41
67131;HTU21D;54051;53.464;49.532;2022-10-16T14:25:26;8.79;61.90
67131;HTU21D;54051;53.464;49.532;2022-10-16T14:28:05;8.77;62.64
67131;HTU21D;54051;53.464;49.532;2022-10-16T14:30:55;8.70;62.80
67131;HTU21D;54051;53.464;49.532;2022-10-16T14:38:42;8.45;64.21
67131;HTU21D;54051;53.464;49.532;2022-10-16T14:41:13;8.31;64.93
67131;HTU21D;54051;53.464;49.532;2022-10-16T14:43:49;8.26;64.94
67131;HTU21D;54051;53.464;49.532;2022-10-16T14:46:22;8.12;65.32
67131;HTU21D;54051;53.464;49.532;2022-10-16T14:49:00;8.02;66.07
67131;HTU21D;54051;53.464;49.532;2022-10-16T14:51:32;7.94;66.24
67131;HTU21D;54051;53.464;49.532;2022-10-16T14:54:07;7.92;66.54
67131;HTU21D;54051;53.464;49.532;2022-10-16T14:56:54;7.87;66.72
67131;HTU21D;54051;53.464;49.532;2022-10-16T14:59:31;7.87;66.93
67131;HTU21D;54051;53.464;49.532;2022-10-16T15:02:18;7.76;67.33
67131;HTU21D;54051;53.464;49.532;2022-10-16T15:04:49;7.71;68.01
67131;HTU21D;54051;53.464;49.532;2022-10-16T15:07:21;7.64;68.48
67131;HTU21D;54051;53.464;49.532;2022-10-16T15:09:52;7.61;68.21
67131;HTU21D;54051;53.464;49.532;2022-10-16T15:12:24;7.54;69.02
67131;HTU21D;54051;53.464;49.532;2022-10-16T15:14:55;7.53;69.20
67131;HTU21D;54051;53.464;49.532;2022-10-16T15:17:26;7.52;68.87
67131;HTU21D;54051;53.464;49.532;2022-10-16T15:19:57;7.48;68.85
67131;HTU21D;54051;53.464;49.532;2022-10-16T15:22:29;7.45;69.07
67131;HTU21D;54051;53.464;49.532;2022-10-16T15:25:25;7.41;69.47
67131;HTU21D;54051;53.464;49.532;2022-10-16T15:27:54;7.47;69.16
67131;HTU21D;54051;53.464;49.532;2022-10-16T15:30:26;7.53;68.79
67131;HTU21D;54051;53.464;49.532;2022-10-16T15:32:57;7.48;69.18
67131;HTU21D;54051;53.464;49.532;2022-10-16T15:35:28;7.48;69.13
67131;HTU21D;54051;53.464;49.532;2022-10-16T15:37:59;7.53;69.50
67131;HTU21D;54051;53.464;49.532;2022-10-16T15:40:30;7.48;69.58
67131;HTU21D;54051;53.464;49.532;2022-10-16T15:43:02;7.48;69.62
67131;HTU21D;54051;53.464;49.532;2022-10-16T15:45:33;7.49;69.45
67131;HTU21D;54051;53.464;49.532;2022-10-16T15:48:04;7.48;69.73
67131;HTU21D;54051;53.464;49.532;2022-10-16T15:50:35;7.49;70.11
67131;HTU21D;54051;53.464;49.532;2022-10-16T15:53:08;7.46;69.31
67131;HTU21D;54051;53.464;49.532;2022-10-16T15:55:39;7.41;69.97
67131;HTU21D;54051;53.464;49.532;2022-10-16T15:58:13;7.37;69.84
67131;HTU21D;54051;53.464;49.532;2022-10-16T16:00:44;7.31;70.03
67131;HTU21D;54051;53.464;49.532;2022-10-16T16:03:15;7.26;71.72
67131;HTU21D;54051;53.464;49.532;2022-10-16T16:05:47;7.19;70.60
67131;HTU21D;54051;53.464;49.532;2022-10-16T16:08:18;7.09;70.75
67131;HTU21D;54051;53.464;49.532;2022-10-16T16:11:03;6.96;70.99
67131;HTU21D;54051;53.464;49.532;2022-10-16T16:13:34;6.89;71.06
67131;HTU21D;54051;53.464;49.532;2022-10-16T16:16:07;6.81;71.30
67131;HTU21D;54051;53.464;49.532;2022-10-16T16:18:39;6.70;71.38
67131;HTU21D;54051;53.464;49.532;2022-10-16T16:21:11;6.68;71.92
67131;HTU21D;54051;53.464;49.532;2022-10-16T16:23:43;6.76;71.76
67131;HTU21D;54051;53.464;49.532;2022-10-16T16:26:15;6.81;71.48
67131;HTU21D;54051;53.464;49.532;2022-10-16T16:28:46;6.86;71.16
67131;HTU21D;54051;53.464;49.532;2022-10-16T16:31:18;6.81;71.64
67131;HTU21D;54051;53.464;49.532;2022-10-16T16:33:49;6.76;72.01
67131;HTU21D;54051;53.464;49.532;2022-10-16T16:36:24;6.78;71.52
67131;HTU21D;54051;53.464;49.532;2022-10-16T16:38:56;6.75;71.72
67131;HTU21D;54051;53.464;49.532;2022-10-16T16:41:27;6.66;72.46
67131;HTU21D;54051;53.464;49.532;2022-10-16T16:44:06;6.64;72.78
67131;HTU21D;54051;53.464;49.532;2022-10-16T16:46:38;6.58;72.60
67131;HTU21D;54051;53.464;49.532;2022-10-16T16:49:11;6.58;72.78
67131;HTU21D;54051;53.464;49.532;2022-10-16T16:51:42;6.46;73.41
67131;HTU21D;54051;53.464;49.532;2022-10-16T16:54:13;6.39;73.67
67131;HTU21D;54051;53.464;49.532;2022-10-16T16:56:45;6.43;75.89
67131;HTU21D;54051;53.464;49.532;2022-10-16T16:59:18;6.53;73.73
67131;HTU21D;54051;53.464;49.532;2022-10-16T17:01:50;6.54;73.90
67131;HTU21D;54051;53.464;49.532;2022-10-16T17:04:22;6.54;74.38
67131;HTU21D;54051;53.464;49.532;2022-10-16T17:06:53;6.51;74.10
67131;HTU21D;54051;53.464;49.532;2022-10-16T17:09:25;6.45;74.14
67131;HTU21D;54051;53.464;49.532;2022-10-16T17:11:56;6.38;75.34
67131;HTU21D;54051;53.464;49.532;2022-10-16T17:14:27;6.51;75.37
67131;HTU21D;54051;53.464;49.532;2022-10-16T17:16:58;6.63;74.64
67131;HTU21D;54051;53.464;49.532;2022-10-16T17:19:29;6.66;74.41
67131;HTU21D;54051;53.464;49.532;2022-10-16T17:22:01;6.67;74.70
67131;HTU21D;54051;53.464;49.532;2022-10-16T17:24:32;6.57;74.98
67131;HTU21D;54051;53.464;49.532;2022-10-16T17:27:03;6.53;75.09
67131;HTU21D;54051;53.464;49.532;2022-10-16T17:29:35;6.44;75.56
67131;HTU21D;54051;53.464;49.532;2022-10-16T17:32:06;6.39;75.82
67131;HTU21D;54051;53.464;49.532;2022-10-16T17:34:37;6.30;75.92
67131;HTU21D;54051;53.464;49.532;2022-10-16T17:37:08;6.24;76.89
67131;HTU21D;54051;53.464;49.532;2022-10-16T17:39:39;6.24;76.83
67131;HTU21D;54051;53.464;49.532;2022-10-16T17:42:10;6.23;78.21
67131;HTU21D;54051;53.464;49.532;2022-10-16T17:44:42;6.29;77.37
67131;HTU21D;54051;53.464;49.532;2022-10-16T17:47:13;6.27;76.22
67131;HTU21D;54051;53.464;49.532;2022-10-16T17:49:44;6.09;76.60
67131;HTU21D;54051;53.464;49.532;2022-10-16T17:52:16;6.01;76.92
67131;HTU21D;54051;53.464;49.532;2022-10-16T17:54:49;5.94;77.40
67131;HTU21D;54051;53.464;49.532;2022-10-16T17:57:20;5.89;77.66
67131;HTU21D;54051;53.464;49.532;2022-10-16T17:59:53;5.91;77.44
67131;HTU21D;54051;53.464;49.532;2022-10-16T18:02:24;5.81;77.87
67131;HTU21D;54051;53.464;49.532;2022-10-16T18:04:55;5.81;78.10
67131;HTU21D;54051;53.464;49.532;2022-10-16T18:07:27;5.79;77.85
67131;HTU21D;54051;53.464;49.532;2022-10-16T18:10:01;5.68;78.27
67131;HTU21D;54051;53.464;49.532;2022-10-16T18:12:40;5.52;79.21
67131;HTU21D;54051;53.464;49.532;2022-10-16T18:15:11;5.45;79.55
67131;HTU21D;54051;53.464;49.532;2022-10-16T18:17:42;5.47;79.70
67131;HTU21D;54051;53.464;49.532;2022-10-16T18:20:13;5.51;79.57
67131;HTU21D;54051;53.464;49.532;2022-10-16T18:22:44;5.52;79.30
67131;HTU21D;54051;53.464;49.532;2022-10-16T18:25:16;5.42;79.78
67131;HTU21D;54051;53.464;49.532;2022-10-16T18:27:47;5.38;79.72
67131;HTU21D;54051;53.464;49.532;2022-10-16T18:30:18;5.36;80.20
67131;HTU21D;54051;53.464;49.532;2022-10-16T18:32:49;5.43;79.82
67131;HTU21D;54051;53.464;49.532;2022-10-16T18:35:20;5.45;79.51
67131;HTU21D;54051;53.464;49.532;2022-10-16T18:37:51;5.38;79.69
67131;HTU21D;54051;53.464;49.532;2022-10-16T18:40:26;5.45;79.29
67131;HTU21D;54051;53.464;49.532;2022-10-16T18:43:01;5.46;79.11
67131;HTU21D;54051;53.464;49.532;2022-10-16T18:51:15;5.50;79.08
67131;HTU21D;54051;53.464;49.532;2022-10-16T18:53:51;5.47;78.97
67131;HTU21D;54051;53.464;49.532;2022-10-16T18:59:04;5.21;80.11
67131;HTU21D;54051;53.464;49.532;2022-10-16T19:01:36;5.24;79.95
67131;HTU21D;54051;53.464;49.532;2022-10-16T19:04:13;5.20;79.91
67131;HTU21D;54051;53.464;49.532;2022-10-16T19:06:45;5.11;80.28